Time;durP1;ratioP1;P1;durP2;ratioP2;P2;SDS_P1;SDS_P2;PMS_P1;PMS_P2;Temp;Humidity;BMP_temperature;BMP_pressure;BME280_temperature;BME280_humidity;BME280_pressure;Samples;Min_cycle;Max_cycle;Signal;HPM_P1;HPM_P2
2023/10/12 00:01:58;;;;;;;13.88;8.07;;;;;;;;;;5052197;28;20021;-64
2023/10/12 00:04:36;;;;;;;14.27;7.78;;;;;;;;;;5052203;28;20032;-65
2023/10/12 00:07:45;;;;;;;13.40;8.18;;;;;;;;;;5052320;28;20048;-63
2023/10/12 00:12:35;;;;;;;15.93;7.63;;;;;;;;;;5052320;28;20471;-64
2023/10/12 00:15:17;;;;;;;13.63;7.63;;;;;;;;;;5052024;28;20124;-64
2023/10/12 00:17:42;;;;;;;10.80;5.32;;;;;;;;;;5052319;28;20033;-65
2023/10/12 00:20:12;;;;;;;11.57;4.47;;;;;;;;;;5052195;28;20064;-64
2023/10/12 00:22:37;;;;;;;6.88;1.92;;;;;;;;;;5052298;28;20025;-63
2023/10/12 00:25:04;;;;;;;1.52;0.85;;;;;;;;;;5052091;28;20488;-63
2023/10/12 00:27:29;;;;;;;1.42;0.65;;;;;;;;;;5050831;28;20033;-62
2023/10/12 00:29:55;;;;;;;1.55;0.70;;;;;;;;;;5052083;28;20411;-62
2023/10/12 00:32:20;;;;;;;1.90;0.60;;;;;;;;;;5052099;28;20033;-63
2023/10/12 00:34:46;;;;;;;3.75;0.60;;;;;;;;;;5051976;28;20052;-63
2023/10/12 00:37:12;;;;;;;1.35;0.60;;;;;;;;;;5052191;28;20074;-64
2023/10/12 00:42:18;;;;;;;;;;;;;;;;;;5055692;28;20100;-64
2023/10/12 00:44:47;;;;;;;2.72;0.65;;;;;;;;;;5055465;28;19958;-63
2023/10/12 00:47:19;;;;;;;4.18;0.60;;;;;;;;;;5055859;28;20029;-64
2023/10/12 00:49:51;;;;;;;1.60;0.52;;;;;;;;;;5055756;28;20067;-65
2023/10/12 00:52:27;;;;;;;3.00;0.77;;;;;;;;;;5055436;28;20514;-64
2023/10/12 00:55:02;;;;;;;1.08;0.50;;;;;;;;;;5061218;28;20465;-64
2023/10/12 00:57:27;;;;;;;1.20;0.70;;;;;;;;;;5055351;28;20115;-63
2023/10/12 00:59:53;;;;;;;0.40;0.40;;;;;;;;;;5055190;28;20104;-64
2023/10/12 01:02:24;;;;;;;0.52;0.50;;;;;;;;;;5055311;28;20029;-66
2023/10/12 01:04:53;;;;;;;4.10;0.55;;;;;;;;;;5053977;28;20039;-65
2023/10/12 01:07:20;;;;;;;2.45;0.50;;;;;;;;;;5055548;28;20013;-66
2023/10/12 01:09:48;;;;;;;2.17;0.63;;;;;;;;;;5055303;28;20037;-64
2023/10/12 01:12:14;;;;;;;1.20;0.50;;;;;;;;;;5055156;28;20021;-65
2023/10/12 01:14:51;;;;;;;1.13;0.65;;;;;;;;;;5054815;28;20033;-65
2023/10/12 01:17:17;;;;;;;3.13;0.60;;;;;;;;;;5055214;28;20426;-64
2023/10/12 01:19:46;;;;;;;1.48;0.70;;;;;;;;;;5055052;28;20025;-64
2023/10/12 01:22:15;;;;;;;1.20;0.57;;;;;;;;;;5054993;28;20070;-64
2023/10/12 01:24:59;;;;;;;1.67;0.52;;;;;;;;;;5054883;28;20390;-64
2023/10/12 01:27:27;;;;;;;0.93;0.40;;;;;;;;;;5035105;28;20029;-65
2023/10/12 01:29:59;;;;;;;1.15;0.50;;;;;;;;;;5034664;28;20095;-64
2023/10/12 01:32:27;;;;;;;2.15;0.40;;;;;;;;;;5034835;28;20383;-64
2023/10/12 01:34:55;;;;;;;2.30;0.50;;;;;;;;;;5047969;28;20048;-67
2023/10/12 01:37:22;;;;;;;0.85;0.50;;;;;;;;;;5054670;28;20466;-67
2023/10/12 01:39:57;;;;;;;0.60;0.32;;;;;;;;;;5054634;28;20037;-67
2023/10/12 01:42:34;;;;;;;0.70;0.57;;;;;;;;;;5054531;28;20120;-66
2023/10/12 01:45:02;;;;;;;1.58;0.60;;;;;;;;;;5054456;28;20113;-68
2023/10/12 01:47:28;;;;;;;1.50;0.60;;;;;;;;;;5054499;28;20482;-68
2023/10/12 01:49:53;;;;;;;0.98;0.65;;;;;;;;;;5054412;28;20087;-67
2023/10/12 01:52:19;;;;;;;3.10;0.85;;;;;;;;;;5053454;28;20049;-68
2023/10/12 01:54:48;;;;;;;1.98;0.90;;;;;;;;;;5059288;28;20063;-68
2023/10/12 01:57:18;;;;;;;1.33;0.52;;;;;;;;;;5054198;28;20035;-68
2023/10/12 01:59:43;;;;;;;1.50;0.90;;;;;;;;;;5054429;28;20449;-68
2023/10/12 02:02:13;;;;;;;2.65;0.65;;;;;;;;;;5054223;28;20297;-68
2023/10/12 02:04:40;;;;;;;;;;;;;;;;;;5054569;28;20111;-68
2023/10/12 02:07:09;;;;;;;2.15;0.70;;;;;;;;;;5053050;28;20039;-68
2023/10/12 02:09:35;;;;;;;2.07;0.70;;;;;;;;;;5054137;28;20025;-68
2023/10/12 02:12:11;;;;;;;1.75;0.77;;;;;;;;;;5053905;28;20261;-68
2023/10/12 02:14:40;;;;;;;1.10;0.70;;;;;;;;;;5053962;28;20068;-67
2023/10/12 02:17:08;;;;;;;1.70;0.70;;;;;;;;;;5053956;28;20424;-68
2023/10/12 02:19:43;;;;;;;1.10;0.73;;;;;;;;;;5053851;28;20021;-68
2023/10/12 02:22:19;;;;;;;0.80;0.50;;;;;;;;;;5053899;28;20463;-69
2023/10/12 02:24:51;;;;;;;2.38;0.70;;;;;;;;;;5053893;28;20032;-68
2023/10/12 02:27:17;;;;;;;1.50;0.80;;;;;;;;;;5033682;28;20029;-68
2023/10/12 02:29:48;;;;;;;0.90;0.60;;;;;;;;;;5033756;28;20071;-68
2023/10/12 02:32:17;;;;;;;2.97;0.82;;;;;;;;;;5033682;28;20036;-65
2023/10/12 02:34:43;;;;;;;1.13;0.65;;;;;;;;;;5045616;28;20025;-68
2023/10/12 02:39:41;;;;;;;2.50;0.73;;;;;;;;;;5053572;28;20021;-67
2023/10/12 02:42:17;;;;;;;2.03;0.80;;;;;;;;;;5053319;28;20025;-68
2023/10/12 02:47:29;;;;;;;0.70;0.50;;;;;;;;;;5053610;28;20021;-67
2023/10/12 02:52:31;;;;;;;0.95;0.68;;;;;;;;;;5053048;28;20041;-68
2023/10/12 02:55:06;;;;;;;2.05;0.60;;;;;;;;;;5058557;28;20078;-68
2023/10/12 02:57:32;;;;;;;1.65;0.70;;;;;;;;;;5053102;28;20033;-67
2023/10/12 03:00:19;;;;;;;0.85;0.60;;;;;;;;;;5053150;28;20021;-67
2023/10/12 03:02:52;;;;;;;0.75;0.60;;;;;;;;;;5053001;28;20064;-65
2023/10/12 03:05:18;;;;;;;1.77;1.10;;;;;;;;;;5053223;28;20053;-67
2023/10/12 03:07:44;;;;;;;0.93;0.55;;;;;;;;;;5053055;28;20060;-66
2023/10/12 03:10:24;;;;;;;0.82;0.60;;;;;;;;;;5052752;28;20025;-66
2023/10/12 03:12:54;;;;;;;3.72;0.55;;;;;;;;;;5052957;28;20033;-64
2023/10/12 03:15:27;;;;;;;1.05;0.60;;;;;;;;;;5052997;28;20143;-63
2023/10/12 03:17:58;;;;;;;1.02;0.57;;;;;;;;;;5052909;28;20104;-64
2023/10/12 03:20:23;;;;;;;1.25;0.80;;;;;;;;;;5052944;28;20032;-63
2023/10/12 03:22:53;;;;;;;1.00;0.60;;;;;;;;;;5052754;28;20033;-64
2023/10/12 03:25:19;;;;;;;1.45;0.60;;;;;;;;;;5051030;28;20020;-64
2023/10/12 03:27:52;;;;;;;1.95;0.60;;;;;;;;;;5052838;28;20028;-66
2023/10/12 03:30:18;;;;;;;1.10;0.65;;;;;;;;;;5052691;28;20374;-64
2023/10/12 03:32:44;;;;;;;1.08;0.60;;;;;;;;;;5052709;28;20028;-64
2023/10/12 03:35:15;;;;;;;1.20;0.60;;;;;;;;;;5052599;28;20048;-63
2023/10/12 03:37:50;;;;;;;1.95;0.80;;;;;;;;;;5052750;28;20033;-64
2023/10/12 03:43:08;;;;;;;1.30;0.77;;;;;;;;;;5052673;28;20082;-64
2023/10/12 03:45:34;;;;;;;2.30;0.70;;;;;;;;;;5052539;28;20112;-65
2023/10/12 03:50:53;;;;;;;2.70;0.60;;;;;;;;;;5052809;28;20474;-63
2023/10/12 03:53:26;;;;;;;1.00;0.70;;;;;;;;;;5050822;28;20508;-65
2023/10/12 03:55:58;;;;;;;3.42;1.17;;;;;;;;;;5058083;28;20127;-64
2023/10/12 03:58:24;;;;;;;1.52;0.75;;;;;;;;;;5052535;28;20025;-64
2023/10/12 04:03:39;;;;;;;1.83;0.75;;;;;;;;;;5052689;28;20093;-65
2023/10/12 04:06:22;;;;;;;1.73;1.08;;;;;;;;;;5052336;28;20059;-63
2023/10/12 04:08:59;;;;;;;2.67;1.00;;;;;;;;;;5050899;28;20111;-64
2023/10/12 04:14:20;;;;;;;5.75;1.25;;;;;;;;;;5052672;28;20470;-64
2023/10/12 04:16:47;;;;;;;3.13;0.95;;;;;;;;;;5054736;28;20025;-63
2023/10/12 04:19:29;;;;;;;1.88;0.80;;;;;;;;;;5056254;28;20025;-64
2023/10/12 04:22:07;;;;;;;1.38;0.90;;;;;;;;;;5055967;28;20056;-64
2023/10/12 04:24:42;;;;;;;3.15;1.13;;;;;;;;;;5055866;28;20469;-63
2023/10/12 04:27:24;;;;;;;3.10;1.00;;;;;;;;;;5055988;28;20037;-64
2023/10/12 04:29:56;;;;;;;6.78;1.48;;;;;;;;;;5056110;28;20033;-64
2023/10/12 04:38:08;;;;;;;1.33;0.70;;;;;;;;;;5053634;28;20071;-64
2023/10/12 04:40:37;;;;;;;2.05;0.80;;;;;;;;;;5053665;28;20043;-64
2023/10/12 04:43:06;;;;;;;1.83;0.85;;;;;;;;;;5053542;28;20021;-64
2023/10/12 04:48:21;;;;;;;3.10;0.70;;;;;;;;;;4994243;28;20464;-65
2023/10/12 04:50:52;;;;;;;2.13;0.77;;;;;;;;;;4994118;28;20467;-65
2023/10/12 04:53:19;;;;;;;2.45;0.85;;;;;;;;;;4993800;28;20049;-64
2023/10/12 04:55:47;;;;;;;2.10;0.90;;;;;;;;;;4999434;28;20030;-63
2023/10/12 05:01:12;;;;;;;1.42;0.80;;;;;;;;;;4993989;28;20026;-68
2023/10/12 05:03:41;;;;;;;1.60;0.70;;;;;;;;;;4993797;28;20034;-68
2023/10/12 05:06:13;;;;;;;1.45;0.70;;;;;;;;;;4977710;28;20049;-68
2023/10/12 05:08:40;;;;;;;0.95;0.70;;;;;;;;;;4993897;28;20037;-68
2023/10/12 05:11:08;;;;;;;1.20;0.65;;;;;;;;;;4993609;28;20030;-68
2023/10/12 05:13:33;;;;;;;3.22;0.90;;;;;;;;;;4993454;28;20046;-68
2023/10/12 05:16:05;;;;;;;3.33;0.77;;;;;;;;;;4993665;28;20034;-68
2023/10/12 05:18:31;;;;;;;3.85;0.70;;;;;;;;;;4993687;28;20038;-67
2023/10/12 05:20:58;;;;;;;2.03;0.60;;;;;;;;;;4993448;28;20469;-68
2023/10/12 05:23:24;;;;;;;3.63;0.98;;;;;;;;;;4993185;28;20136;-67
2023/10/12 05:28:21;;;;;;;6.20;1.20;;;;;;;;;;5053711;28;20029;-68
2023/10/12 05:30:59;;;;;;;7.80;1.17;;;;;;;;;;5054792;28;20021;-65
2023/10/12 05:36:15;;;;;;;6.07;1.00;;;;;;;;;;5052011;28;20537;-67
2023/10/12 05:38:51;;;;;;;6.15;1.35;;;;;;;;;;5052305;28;20067;-65
2023/10/12 05:44:15;;;;;;;8.07;1.20;;;;;;;;;;5043615;28;20087;-65
2023/10/12 05:46:44;;;;;;;6.95;1.02;;;;;;;;;;5052313;28;20037;-64
2023/10/12 05:49:13;;;;;;;7.45;1.10;;;;;;;;;;5051824;28;20386;-64
2023/10/12 05:51:45;;;;;;;11.13;1.65;;;;;;;;;;5052093;28;20118;-64
2023/10/12 05:54:15;;;;;;;4.43;1.00;;;;;;;;;;5051967;28;20040;-68
2023/10/12 05:56:41;;;;;;;4.65;1.33;;;;;;;;;;5056832;28;20162;-64
2023/10/12 05:59:13;;;;;;;6.80;1.13;;;;;;;;;;5052102;28;20028;-67
2023/10/12 06:01:45;;;;;;;7.20;1.15;;;;;;;;;;5052023;28;20363;-65
2023/10/12 06:04:14;;;;;;;9.65;1.40;;;;;;;;;;5051508;28;20537;-63
2023/10/12 06:06:41;;;;;;;7.43;1.48;;;;;;;;;;5051582;28;20124;-64
2023/10/12 06:09:20;;;;;;;10.60;1.80;;;;;;;;;;5051956;28;20374;-64
2023/10/12 06:11:47;;;;;;;11.18;1.70;;;;;;;;;;5051764;28;20029;-65
2023/10/12 06:14:14;;;;;;;10.48;1.42;;;;;;;;;;5036308;28;20583;-64
2023/10/12 06:16:40;;;;;;;9.75;1.30;;;;;;;;;;5034015;28;20095;-64
2023/10/12 06:19:23;;;;;;;9.77;1.77;;;;;;;;;;5033757;28;20029;-64
2023/10/12 06:21:51;;;;;;;7.75;1.50;;;;;;;;;;5049145;28;20041;-64
2023/10/12 06:24:22;;;;;;;5.30;1.45;;;;;;;;;;5033780;28;20025;-63
2023/10/12 06:26:48;;;;;;;8.43;1.27;;;;;;;;;;5050597;28;20473;-64
2023/10/12 06:29:24;;;;;;;11.23;2.50;;;;;;;;;;5053656;28;20112;-63
2023/10/12 06:31:52;;;;;;;6.97;1.40;;;;;;;;;;5053647;28;20039;-64
2023/10/12 06:34:21;;;;;;;9.07;0.98;;;;;;;;;;5053001;28;20032;-64
2023/10/12 06:36:46;;;;;;;8.07;1.13;;;;;;;;;;5053399;28;20366;-63
2023/10/12 06:46:53;;;;;;;5.00;0.98;;;;;;;;;;5053184;28;20501;-63
2023/10/12 06:49:22;;;;;;;8.18;1.50;;;;;;;;;;5053299;28;20029;-64
2023/10/12 06:52:01;;;;;;;5.10;1.30;;;;;;;;;;5060069;28;20490;-65
2023/10/12 06:54:32;;;;;;;6.03;0.98;;;;;;;;;;5061323;28;20040;-68
2023/10/12 06:59:52;;;;;;;5.63;1.10;;;;;;;;;;5040613;28;20028;-65
2023/10/12 07:02:23;;;;;;;5.90;1.30;;;;;;;;;;5046211;28;20033;-63
2023/10/12 07:04:55;;;;;;;7.28;1.10;;;;;;;;;;5065878;28;20032;-63
2023/10/12 07:07:28;;;;;;;13.38;1.63;;;;;;;;;;5052724;28;20028;-63
2023/10/12 07:10:26;;;;;;;11.55;2.47;;;;;;;;;;5052658;28;20029;-63
2023/10/12 07:12:52;;;;;;;5.70;1.08;;;;;;;;;;5052441;28;20037;-63
2023/10/12 07:15:21;;;;;;;9.98;2.45;;;;;;;;;;5052650;28;20017;-64
2023/10/12 07:17:49;;;;;;;9.55;2.22;;;;;;;;;;5049697;28;20032;-64
2023/10/12 07:23:14;;;;;;;12.18;2.63;;;;;;;;;;5052608;28;20471;-63
2023/10/12 07:25:43;;;;;;;8.45;1.80;;;;;;;;;;5052458;28;20025;-64
2023/10/12 07:28:16;;;;;;;9.25;2.28;;;;;;;;;;5052561;28;20029;-63
2023/10/12 07:31:05;;;;;;;7.95;1.67;;;;;;;;;;5052052;28;20420;-63
2023/10/12 07:33:32;;;;;;;9.20;1.67;;;;;;;;;;5052218;28;20036;-63
2023/10/12 07:36:17;;;;;;;5.57;1.20;;;;;;;;;;5040530;28;20034;-63
2023/10/12 07:38:43;;;;;;;6.90;1.40;;;;;;;;;;5032399;28;20033;-63
2023/10/12 07:41:09;;;;;;;9.40;1.75;;;;;;;;;;5032445;28;20483;-64
2023/10/12 07:43:38;;;;;;;8.93;1.40;;;;;;;;;;5032391;28;20430;-63
2023/10/12 07:46:13;;;;;;;9.95;1.40;;;;;;;;;;5032126;28;20461;-63
2023/10/12 07:48:44;;;;;;;6.30;1.23;;;;;;;;;;5045676;28;20146;-63
2023/10/12 07:51:18;;;;;;;5.40;1.17;;;;;;;;;;5073603;28;20465;-63
2023/10/12 07:53:49;;;;;;;10.15;2.10;;;;;;;;;;5073214;28;20385;-64
2023/10/12 07:56:18;;;;;;;7.80;1.60;;;;;;;;;;5055658;28;20071;-64
2023/10/12 07:58:47;;;;;;;13.95;2.03;;;;;;;;;;5056121;28;20025;-63
2023/10/12 08:03:59;;;;;;;4.35;1.10;;;;;;;;;;5055914;28;20408;-63
2023/10/12 08:09:33;;;;;;;7.97;1.30;;;;;;;;;;5056011;28;20029;-64
2023/10/12 08:11:59;;;;;;;6.35;1.98;;;;;;;;;;5056016;28;20077;-64
2023/10/12 08:19:43;;;;;;;16.83;6.18;;;;;;;;;;5056206;28;20036;-68
2023/10/12 08:22:17;;;;;;;10.90;4.05;;;;;;;;;;5056061;28;20044;-67
2023/10/12 08:24:45;;;;;;;14.98;5.20;;;;;;;;;;5055711;28;20029;-68
2023/10/12 08:27:12;;;;;;;13.05;3.50;;;;;;;;;;5054482;28;20021;-68
2023/10/12 08:39:38;;;;;;;4.43;1.08;;;;;;;;;;5055629;28;20029;-64
2023/10/12 08:44:58;;;;;;;10.25;1.95;;;;;;;;;;5055034;28;20029;-64
2023/10/12 08:47:26;;;;;;;8.93;1.75;;;;;;;;;;5055561;28;20033;-63
2023/10/12 08:49:53;;;;;;;11.60;1.88;;;;;;;;;;5055369;28;20104;-63
2023/10/12 08:52:29;;;;;;;8.65;1.90;;;;;;;;;;5055048;28;20037;-64
2023/10/12 08:55:11;;;;;;;8.95;1.73;;;;;;;;;;5059555;28;20070;-63
2023/10/12 08:58:03;;;;;;;7.95;1.90;;;;;;;;;;5054704;28;20091;-64
2023/10/12 09:03:37;;;;;;;10.05;1.65;;;;;;;;;;5054846;28;20021;-65
2023/10/12 09:06:00;;;;;;;8.13;1.75;;;;;;;;;;5054641;28;20047;-64
2023/10/12 09:13:34;;;;;;;9.73;1.60;;;;;;;;;;5054776;28;20029;-63
2023/10/12 09:16:05;;;;;;;12.23;1.70;;;;;;;;;;5054887;28;20035;-63
2023/10/12 09:18:43;;;;;;;16.60;1.77;;;;;;;;;;5054629;28;20029;-64
2023/10/12 09:23:52;;;;;;;9.95;1.38;;;;;;;;;;5054693;28;20450;-64
2023/10/12 09:26:30;;;;;;;14.90;1.65;;;;;;;;;;5054542;28;20029;-63
2023/10/12 09:36:43;;;;;;;9.60;1.40;;;;;;;;;;5054429;28;20424;-63
2023/10/12 09:39:13;;;;;;;5.82;1.27;;;;;;;;;;5054490;28;20028;-65
2023/10/12 09:41:41;;;;;;;10.60;1.52;;;;;;;;;;5054149;28;20052;-63
2023/10/12 09:44:11;;;;;;;10.52;1.40;;;;;;;;;;5054299;28;20389;-63
2023/10/12 09:46:48;;;;;;;13.00;1.98;;;;;;;;;;5054286;28;20059;-64
2023/10/12 09:49:22;;;;;;;8.25;1.65;;;;;;;;;;5053995;28;20063;-62
2023/10/12 09:52:01;;;;;;;8.50;1.65;;;;;;;;;;5054152;28;20056;-63
2023/10/12 09:54:48;;;;;;;9.13;1.30;;;;;;;;;;5056359;28;20116;-64
2023/10/12 09:57:19;;;;;;;9.13;1.63;;;;;;;;;;5053958;28;20037;-63
2023/10/12 09:59:52;;;;;;;11.02;1.98;;;;;;;;;;5054040;28;20044;-62
2023/10/12 10:02:27;;;;;;;9.70;1.48;;;;;;;;;;5053765;28;20036;-62
2023/10/12 10:05:01;;;;;;;7.70;1.50;;;;;;;;;;5053792;28;20078;-66
2023/10/12 10:07:36;;;;;;;6.38;1.50;;;;;;;;;;5053771;28;20041;-63
2023/10/12 10:10:06;;;;;;;8.52;1.45;;;;;;;;;;5053252;28;20440;-64
2023/10/12 10:12:42;;;;;;;6.63;1.33;;;;;;;;;;5052574;28;20113;-63
2023/10/12 10:15:20;;;;;;;9.25;1.70;;;;;;;;;;5053161;28;20126;-63
2023/10/12 10:17:52;;;;;;;7.22;1.58;;;;;;;;;;5053649;28;20466;-63
2023/10/12 10:23:01;;;;;;;6.20;1.98;;;;;;;;;;5053633;28;20051;-62
2023/10/12 10:25:33;;;;;;;6.80;1.70;;;;;;;;;;5053174;28;20025;-62
2023/10/12 10:28:06;;;;;;;6.65;1.50;;;;;;;;;;5053222;28;20544;-64
2023/10/12 10:30:40;;;;;;;9.68;1.92;;;;;;;;;;5053203;28;20459;-62
2023/10/12 10:33:14;;;;;;;12.20;1.60;;;;;;;;;;5052060;28;20056;-64
2023/10/12 10:36:16;;;;;;;8.38;1.80;;;;;;;;;;5053050;28;20060;-63
2023/10/12 10:41:46;;;;;;;7.00;1.35;;;;;;;;;;5051087;28;20037;-62
2023/10/12 10:44:16;;;;;;;9.90;1.63;;;;;;;;;;5034056;28;20151;-63
2023/10/12 10:47:00;;;;;;;10.27;1.55;;;;;;;;;;5050800;28;20064;-62
2023/10/12 10:49:32;;;;;;;7.47;1.42;;;;;;;;;;5051143;28;20084;-63
2023/10/12 10:54:33;;;;;;;4.80;1.05;;;;;;;;;;5053393;28;20029;-62
2023/10/12 10:57:01;;;;;;;8.35;1.50;;;;;;;;;;5038664;28;20037;-62
2023/10/12 10:59:26;;;;;;;9.25;1.70;;;;;;;;;;5030923;28;20048;-62
2023/10/12 11:01:52;;;;;;;6.43;1.33;;;;;;;;;;5030939;28;20029;-62
2023/10/12 11:07:03;;;;;;;7.35;1.38;;;;;;;;;;5030590;28;20029;-62
2023/10/12 11:09:54;;;;;;;8.27;1.63;;;;;;;;;;5036869;28;20025;-65
2023/10/12 11:12:21;;;;;;;6.63;1.10;;;;;;;;;;5050258;28;20037;-63
2023/10/12 11:15:09;;;;;;;8.55;1.90;;;;;;;;;;5050162;28;20052;-64
2023/10/12 11:17:35;;;;;;;8.30;1.52;;;;;;;;;;5049847;28;20123;-63
2023/10/12 11:20:08;;;;;;;7.15;1.50;;;;;;;;;;5052505;28;20536;-63
2023/10/12 11:22:37;;;;;;;4.30;1.10;;;;;;;;;;5052289;28;20037;-63
2023/10/12 11:25:04;;;;;;;7.72;1.73;;;;;;;;;;5051765;28;20443;-63
2023/10/12 11:27:34;;;;;;;6.43;1.88;;;;;;;;;;5052181;28;20028;-63
2023/10/12 11:30:18;;;;;;;5.15;1.10;;;;;;;;;;5052577;28;20036;-63
2023/10/12 11:32:54;;;;;;;6.10;1.17;;;;;;;;;;5052269;28;20405;-64
2023/10/12 11:35:43;;;;;;;7.88;1.58;;;;;;;;;;5052393;28;20036;-62
2023/10/12 11:38:20;;;;;;;8.57;1.63;;;;;;;;;;5052225;28;20033;-63
2023/10/12 11:40:52;;;;;;;4.78;0.93;;;;;;;;;;5052237;28;20021;-63
2023/10/12 11:43:29;;;;;;;7.75;1.08;;;;;;;;;;5052293;28;20025;-66
2023/10/12 11:46:01;;;;;;;5.47;1.17;;;;;;;;;;5052339;28;20025;-67
2023/10/12 11:48:28;;;;;;;9.30;1.40;;;;;;;;;;5052188;28;20021;-64
2023/10/12 11:50:55;;;;;;;6.10;1.13;;;;;;;;;;5052361;28;20021;-67
2023/10/12 11:53:21;;;;;;;9.63;2.60;;;;;;;;;;5052005;28;20037;-65
2023/10/12 11:55:49;;;;;;;4.78;1.05;;;;;;;;;;5057699;28;20060;-67
2023/10/12 11:58:19;;;;;;;9.90;1.40;;;;;;;;;;5052356;28;20028;-68
2023/10/12 12:00:48;;;;;;;8.25;1.75;;;;;;;;;;5052139;28;20104;-67
2023/10/12 12:03:15;;;;;;;10.23;1.45;;;;;;;;;;5052156;28;20532;-67
2023/10/12 12:05:42;;;;;;;9.40;1.13;;;;;;;;;;5052333;28;20024;-64
2023/10/12 12:08:13;;;;;;;7.10;1.75;;;;;;;;;;5051465;28;20048;-62
2023/10/12 12:10:54;;;;;;;7.93;1.48;;;;;;;;;;5051987;28;20029;-64
2023/10/12 12:13:20;;;;;;;5.72;0.88;;;;;;;;;;5052209;28;20017;-63
2023/10/12 12:15:49;;;;;;;5.60;1.27;;;;;;;;;;5052172;28;20029;-63
2023/10/12 12:18:20;;;;;;;5.37;1.30;;;;;;;;;;5052111;28;20025;-63
2023/10/12 12:20:53;;;;;;;6.22;1.10;;;;;;;;;;5051857;28;20091;-63
2023/10/12 12:23:20;;;;;;;9.20;1.25;;;;;;;;;;5052098;28;20021;-63
2023/10/12 12:25:46;;;;;;;8.45;1.38;;;;;;;;;;5051710;28;20021;-63
2023/10/12 12:28:21;;;;;;;3.70;1.40;;;;;;;;;;5052076;28;20032;-63
2023/10/12 12:30:55;;;;;;;5.85;1.17;;;;;;;;;;5051935;28;20463;-63
2023/10/12 12:33:21;;;;;;;4.75;1.10;;;;;;;;;;5051778;28;20185;-63
2023/10/12 12:35:48;;;;;;;2.45;0.85;;;;;;;;;;5051725;28;20040;-64
2023/10/12 12:40:59;;;;;;;5.65;1.25;;;;;;;;;;5055952;28;20044;-63
2023/10/12 12:43:25;;;;;;;9.60;1.33;;;;;;;;;;5055735;28;20071;-63
2023/10/12 12:45:52;;;;;;;5.40;1.17;;;;;;;;;;5055446;28;20060;-63
2023/10/12 12:48:20;;;;;;;7.90;1.23;;;;;;;;;;5055268;28;20040;-64
2023/10/12 12:50:47;;;;;;;8.52;1.58;;;;;;;;;;5055029;28;20219;-63
2023/10/12 12:53:18;;;;;;;9.45;1.48;;;;;;;;;;5055175;28;20095;-63
2023/10/12 12:55:44;;;;;;;7.97;1.30;;;;;;;;;;5060557;28;20470;-64
2023/10/12 12:58:14;;;;;;;4.05;1.00;;;;;;;;;;5055267;28;20055;-63
2023/10/12 13:00:40;;;;;;;6.03;1.38;;;;;;;;;;5055092;28;20032;-66
2023/10/12 13:03:05;;;;;;;5.32;1.70;;;;;;;;;;5055199;28;20397;-64
2023/10/12 13:05:33;;;;;;;6.45;1.25;;;;;;;;;;5055070;28;20079;-63
2023/10/12 13:08:00;;;;;;;5.50;1.70;;;;;;;;;;5055040;28;20360;-64
2023/10/12 13:10:25;;;;;;;3.25;0.80;;;;;;;;;;5054800;28;20033;-63
2023/10/12 13:12:51;;;;;;;7.32;1.38;;;;;;;;;;5054814;28;20030;-64
2023/10/12 13:15:17;;;;;;;8.90;2.28;;;;;;;;;;5055007;28;20427;-63
2023/10/12 13:17:43;;;;;;;5.03;1.38;;;;;;;;;;5054820;28;20421;-63
2023/10/12 13:20:29;;;;;;;8.82;1.92;;;;;;;;;;5054688;28;20050;-64
2023/10/12 13:22:58;;;;;;;6.95;1.52;;;;;;;;;;5054620;28;20041;-63
2023/10/12 13:25:27;;;;;;;6.75;1.65;;;;;;;;;;5054562;28;20017;-64
2023/10/12 13:27:53;;;;;;;6.28;1.30;;;;;;;;;;5054917;28;20378;-65
2023/10/12 13:30:18;;;;;;;7.22;1.13;;;;;;;;;;5054830;28;20202;-63
2023/10/12 13:32:47;;;;;;;6.65;1.33;;;;;;;;;;5054549;28;20118;-63
2023/10/12 13:35:28;;;;;;;8.52;1.30;;;;;;;;;;5054431;28;20029;-64
2023/10/12 13:37:55;;;;;;;5.40;1.20;;;;;;;;;;5054417;28;20037;-64
2023/10/12 13:40:21;;;;;;;8.75;1.35;;;;;;;;;;5054513;28;20024;-63
2023/10/12 13:42:46;;;;;;;6.78;1.55;;;;;;;;;;5054159;28;20111;-63
2023/10/12 13:45:18;;;;;;;7.53;1.63;;;;;;;;;;5054620;28;20039;-63
2023/10/12 13:47:46;;;;;;;12.00;2.08;;;;;;;;;;5053973;28;20027;-64
2023/10/12 13:50:13;;;;;;;8.90;1.52;;;;;;;;;;5053225;28;20107;-63
2023/10/12 13:52:40;;;;;;;7.00;1.30;;;;;;;;;;5053919;28;20544;-64
2023/10/12 13:55:13;;;;;;;6.03;1.33;;;;;;;;;;5059625;28;20032;-64
2023/10/12 13:57:55;;;;;;;5.05;0.95;;;;;;;;;;5054016;28;20112;-63
2023/10/12 14:00:33;;;;;;;6.43;1.30;;;;;;;;;;5054193;28;20036;-63
2023/10/12 14:03:10;;;;;;;14.90;1.58;;;;;;;;;;5053852;28;20021;-63
2023/10/12 14:05:40;;;;;;;7.68;1.70;;;;;;;;;;5053964;28;20060;-63
2023/10/12 14:08:08;;;;;;;5.18;2.00;;;;;;;;;;5054064;28;20029;-63
2023/10/12 14:10:38;;;;;;;8.73;1.90;;;;;;;;;;5052356;28;20421;-63
2023/10/12 14:13:04;;;;;;;11.73;1.95;;;;;;;;;;5053322;28;20021;-64
2023/10/12 14:15:29;;;;;;;4.60;1.10;;;;;;;;;;5053557;28;20398;-64
2023/10/12 14:17:55;;;;;;;6.68;1.65;;;;;;;;;;5053673;28;20032;-63
2023/10/12 14:20:26;;;;;;;6.75;1.40;;;;;;;;;;5033982;28;20025;-63
2023/10/12 14:22:57;;;;;;;7.45;1.33;;;;;;;;;;5033736;28;20022;-64
2023/10/12 14:25:30;;;;;;;7.55;1.52;;;;;;;;;;5038637;28;20497;-63
2023/10/12 14:27:59;;;;;;;6.57;1.40;;;;;;;;;;5052581;28;20029;-63
2023/10/12 14:30:28;;;;;;;15.27;4.93;;;;;;;;;;5053387;28;20017;-64
2023/10/12 14:32:55;;;;;;;5.65;2.22;;;;;;;;;;5053076;28;20038;-63
2023/10/12 14:35:20;;;;;;;7.95;1.67;;;;;;;;;;5053247;28;20468;-63
2023/10/12 14:37:46;;;;;;;7.63;2.10;;;;;;;;;;5053367;28;20234;-63
2023/10/12 14:40:18;;;;;;;12.32;1.77;;;;;;;;;;5053382;28;20027;-63
2023/10/12 14:42:43;;;;;;;7.18;1.67;;;;;;;;;;5053121;28;20025;-63
2023/10/12 14:45:09;;;;;;;7.32;1.50;;;;;;;;;;5053318;28;20031;-63
2023/10/12 14:47:36;;;;;;;9.82;2.40;;;;;;;;;;5052850;28;20040;-64
2023/10/12 14:50:05;;;;;;;8.02;1.20;;;;;;;;;;5053030;28;20036;-63
2023/10/12 14:52:40;;;;;;;6.65;1.52;;;;;;;;;;5052797;28;20049;-63
2023/10/12 14:55:10;;;;;;;6.95;1.60;;;;;;;;;;5058575;28;20033;-63
2023/10/12 14:57:39;;;;;;;6.30;1.40;;;;;;;;;;5052810;28;20033;-63
2023/10/12 15:00:14;;;;;;;8.52;3.38;;;;;;;;;;5052553;28;20035;-64
2023/10/12 15:02:41;;;;;;;7.38;2.08;;;;;;;;;;5052774;28;20075;-61
2023/10/12 15:05:11;;;;;;;12.48;4.25;;;;;;;;;;5052433;28;20047;-61
2023/10/12 15:07:37;;;;;;;13.50;2.50;;;;;;;;;;5052685;28;20029;-62
2023/10/12 15:10:05;;;;;;;8.75;2.10;;;;;;;;;;5052689;28;20040;-61
2023/10/12 15:12:32;;;;;;;8.60;1.25;;;;;;;;;;5052448;28;20029;-62
2023/10/12 15:15:01;;;;;;;9.93;1.83;;;;;;;;;;5052377;28;20029;-61
2023/10/12 15:17:27;;;;;;;10.15;2.05;;;;;;;;;;5053093;28;20029;-64
2023/10/12 15:19:53;;;;;;;6.38;2.10;;;;;;;;;;5052741;28;20137;-62
2023/10/12 15:22:19;;;;;;;10.40;2.10;;;;;;;;;;5052592;28;20170;-63
2023/10/12 15:24:44;;;;;;;8.32;2.33;;;;;;;;;;5052417;28;20040;-62
2023/10/12 15:27:10;;;;;;;11.38;2.70;;;;;;;;;;5052271;28;20028;-62
2023/10/12 15:29:37;;;;;;;12.23;2.90;;;;;;;;;;5051940;28;20481;-62
2023/10/12 15:32:03;;;;;;;17.35;3.70;;;;;;;;;;5052455;28;20474;-64
2023/10/12 15:34:32;;;;;;;10.55;1.70;;;;;;;;;;5052141;28;20429;-62
2023/10/12 15:37:01;;;;;;;14.98;1.55;;;;;;;;;;5051161;28;20033;-62
2023/10/12 15:39:30;;;;;;;5.43;1.30;;;;;;;;;;5052535;28;20036;-61
2023/10/12 15:41:55;;;;;;;5.93;1.30;;;;;;;;;;5051958;28;20025;-62
2023/10/12 15:44:22;;;;;;;12.00;1.50;;;;;;;;;;5052227;28;20048;-63
2023/10/12 15:46:48;;;;;;;9.98;1.50;;;;;;;;;;5052546;28;20105;-62
2023/10/12 15:49:14;;;;;;;12.80;1.70;;;;;;;;;;5052594;28;20052;-63
2023/10/12 15:51:39;;;;;;;6.60;1.45;;;;;;;;;;5059539;28;20097;-62
2023/10/12 15:54:05;;;;;;;8.05;1.23;;;;;;;;;;5071743;28;20063;-62
2023/10/12 15:56:32;;;;;;;9.60;1.55;;;;;;;;;;5057211;28;20048;-66
2023/10/12 15:58:57;;;;;;;8.00;2.03;;;;;;;;;;5052202;28;20029;-63
2023/10/12 16:01:27;;;;;;;10.27;2.33;;;;;;;;;;5051451;28;20040;-63
2023/10/12 16:03:52;;;;;;;10.77;1.65;;;;;;;;;;5051663;28;20025;-62
2023/10/12 16:06:18;;;;;;;10.32;1.52;;;;;;;;;;5051206;28;20502;-63
2023/10/12 16:08:48;;;;;;;11.02;1.50;;;;;;;;;;5050170;28;20356;-62
2023/10/12 16:11:17;;;;;;;10.77;1.48;;;;;;;;;;5050370;28;20413;-63
2023/10/12 16:13:42;;;;;;;11.52;1.80;;;;;;;;;;5054258;28;20025;-63
2023/10/12 16:16:11;;;;;;;10.27;1.42;;;;;;;;;;5055171;28;20543;-63
2023/10/12 16:18:40;;;;;;;8.35;1.98;;;;;;;;;;5055932;28;20048;-64
2023/10/12 16:21:16;;;;;;;8.05;2.72;;;;;;;;;;5056007;28;20021;-63
2023/10/12 16:23:42;;;;;;;7.88;1.95;;;;;;;;;;5056230;28;20059;-62
2023/10/12 16:26:12;;;;;;;13.00;2.05;;;;;;;;;;5056140;28;20021;-63
2023/10/12 16:28:40;;;;;;;9.68;2.13;;;;;;;;;;5056027;28;20489;-64
2023/10/12 16:31:09;;;;;;;11.82;2.20;;;;;;;;;;5056084;28;20025;-64
2023/10/12 16:33:36;;;;;;;13.43;2.65;;;;;;;;;;5055574;28;20359;-62
2023/10/12 16:36:08;;;;;;;8.55;2.30;;;;;;;;;;5055781;28;20036;-61
2023/10/12 16:38:35;;;;;;;16.23;2.13;;;;;;;;;;5054477;28;20033;-61
2023/10/12 16:41:03;;;;;;;14.00;2.70;;;;;;;;;;5055636;28;20127;-62
2023/10/12 16:43:28;;;;;;;9.65;2.83;;;;;;;;;;5055102;28;20040;-64
2023/10/12 16:45:57;;;;;;;15.23;3.55;;;;;;;;;;5055619;28;20033;-62
2023/10/12 16:48:28;;;;;;;9.32;3.05;;;;;;;;;;5055509;28;20025;-61
2023/10/12 16:50:55;;;;;;;7.00;2.17;;;;;;;;;;5055760;28;20043;-62
2023/10/12 16:53:20;;;;;;;4.57;1.83;;;;;;;;;;5054164;28;20171;-63